»·PEaware :: SWA517 KSJC-KLAX

SWA517 :: KSJC-KLAX

FLIGHT INFORMATION

Flight Status: Arrived
Operator:
Southwest Airlines
More flights by this operator :: More flights under this callsign
Pilot: Steve F. (26981)
Aircraft: BOEING 737-900
(B739)
More flights by this aircraft type
Origin: KSJC Mineta San Jose Intl
United States
Destination: KLAX Los Angeles Intl
United States
More flights between these airports :: More routes between these airports
Route: SPTNS1 VLREE EBAYE BURGL IRNMN2
File this flight plan on PilotEdge
Remarks:
Altitude:
(Current/Filed)
31,000ft
Speed:
(Current/Filed)
453kts
Departed: 05-Nov-23 01:34 PM
Arrived: 05-Nov-23 02:29 PM
Distance/Time
Traveled:
267nm/0:54
Distance/Time
To Go:
Arrived

Flight Plot

Page will automatically refresh every two minutes.

Flight plan parsing failed; only flown route is shown


Map Options




Map Legend


Flown Route
Filed Route
Departure Airport
Arrival Airport
Navaid (VOR, NDB)
Fix

Horizontal Profiles

Position Reports

Time Latitude Longitude Heading Altitude Ground
Speed
05-Nov-23 13:12 37.365211 -121.925715 48 64ft 0kts
05-Nov-23 13:13 37.365211 -121.925715 48 64ft 0kts
05-Nov-23 13:14 37.365211 -121.925715 48 64ft 0kts
05-Nov-23 13:15 37.365211 -121.925715 48 64ft 0kts
05-Nov-23 13:16 37.365211 -121.925715 48 64ft 0kts
05-Nov-23 13:17 37.365211 -121.925715 48 64ft 0kts
05-Nov-23 13:18 37.365211 -121.925715 48 64ft 0kts
05-Nov-23 13:19 37.365211 -121.925715 48 64ft 0kts
05-Nov-23 13:20 37.365211 -121.925715 48 64ft 0kts
05-Nov-23 13:21 37.365211 -121.925715 48 64ft 0kts
05-Nov-23 13:22 37.365211 -121.925715 48 64ft 0kts
05-Nov-23 13:23 37.365211 -121.925715 48 64ft 0kts
05-Nov-23 13:24 37.365211 -121.925715 48 64ft 0kts
05-Nov-23 13:25 37.365211 -121.925715 48 64ft 0kts
05-Nov-23 13:26 37.365089 -121.925890 48 64ft 2kts
05-Nov-23 13:27 37.364873 -121.926363 99 64ft 0kts
05-Nov-23 13:28 37.364873 -121.926363 99 64ft 0kts
05-Nov-23 13:29 37.364610 -121.926129 150 64ft 8kts
05-Nov-23 13:30 37.360726 -121.921957 138 64ft 24kts
05-Nov-23 13:31 37.355258 -121.915961 138 64ft 24kts
05-Nov-23 13:32 37.353042 -121.914508 228 64ft 0kts
05-Nov-23 13:33 37.355826 -121.919148 318 64ft 82kts
05-Nov-23 13:34 37.389221 -121.956389 319 1762ft 188kts
05-Nov-23 13:35 37.435176 -121.956295 60 3577ft 225kts
05-Nov-23 13:36 37.412595 -121.890980 140 4842ft 220kts
05-Nov-23 13:37 37.367171 -121.838605 138 5126ft 241kts
05-Nov-23 13:38 37.315135 -121.774243 136 5312ft 266kts
05-Nov-23 13:39 37.259509 -121.708186 139 8306ft 282kts
05-Nov-23 13:40 37.199986 -121.641714 142 11190ft 307kts
05-Nov-23 13:41 37.128505 -121.561242 142 12439ft 379kts
05-Nov-23 13:42 37.047682 -121.470626 144 14967ft 397kts
05-Nov-23 13:43 36.961659 -121.379502 145 17370ft 414kts
05-Nov-23 13:44 36.871789 -121.284223 145 19492ft 431kts
05-Nov-23 13:45 36.781386 -121.187664 145 21329ft 445kts
05-Nov-23 13:46 36.685172 -121.086153 146 22966ft 459kts
05-Nov-23 13:47 36.586412 -120.982601 147 24439ft 469kts
05-Nov-23 13:48 36.483873 -120.878974 147 25804ft 477kts
05-Nov-23 13:49 36.380099 -120.774134 147 26987ft 485kts
05-Nov-23 13:50 36.275196 -120.667786 146 28082ft 490kts
05-Nov-23 13:51 36.172837 -120.564633 146 29459ft 485kts
05-Nov-23 13:52 36.071591 -120.462725 146 30656ft 484kts
05-Nov-23 13:53 35.966583 -120.357930 146 31050ft 486kts
05-Nov-23 13:54 35.861198 -120.254778 151 31049ft 480kts
05-Nov-23 13:55 35.747953 -120.169323 154 31047ft 477kts
05-Nov-23 13:56 35.634961 -120.084310 154 31048ft 477kts
05-Nov-23 13:57 35.521652 -119.998711 154 31045ft 477kts
05-Nov-23 13:58 35.408633 -119.913836 154 31035ft 477kts
05-Nov-23 13:59 35.300126 -119.832680 153 31049ft 478kts
05-Nov-23 14:00 35.192677 -119.734904 146 31044ft 483kts
05-Nov-23 14:01 35.086299 -119.634875 147 29750ft 477kts
05-Nov-23 14:02 34.983365 -119.539402 147 27624ft 453kts
05-Nov-23 14:03 34.884913 -119.448811 148 25628ft 433kts
05-Nov-23 14:04 34.813182 -119.384882 148 24288ft 424kts
05-Nov-23 14:06 34.687440 -119.273768 148 21676ft 417kts
05-Nov-23 14:07 34.596797 -119.195066 148 19704ft 401kts
05-Nov-23 14:08 34.508346 -119.117642 147 17825ft 388kts
05-Nov-23 14:09 34.421629 -119.041198 147 15622ft 381kts
05-Nov-23 14:10 34.338547 -118.969370 147 14040ft 361kts
05-Nov-23 14:11 34.259305 -118.897323 145 12544ft 353kts
05-Nov-23 14:12 34.183231 -118.827510 145 12105ft 327kts
05-Nov-23 14:13 34.116940 -118.758836 140 11228ft 310kts
05-Nov-23 14:14 34.053933 -118.690042 139 9807ft 300kts
05-Nov-23 14:15 34.022759 -118.602000 94 8572ft 286kts
05-Nov-23 14:16 34.015399 -118.511346 96 7585ft 267kts
05-Nov-23 14:17 34.014939 -118.426782 78 6792ft 241kts
05-Nov-23 14:18 34.021513 -118.346555 85 5530ft 238kts
05-Nov-23 14:19 34.026497 -118.268311 85 4426ft 230kts
05-Nov-23 14:20 34.031210 -118.196611 85 3981ft 225kts
05-Nov-23 14:21 34.036227 -118.120712 85 3995ft 227kts
05-Nov-23 14:22 33.998941 -118.084868 210 3997ft 227kts
05-Nov-23 14:23 33.974960 -118.150042 270 3555ft 226kts
05-Nov-23 14:24 33.970591 -118.222062 262 2934ft 193kts
05-Nov-23 14:25 33.964260 -118.283322 262 2049ft 178kts
05-Nov-23 14:26 33.958591 -118.338671 261 1177ft 150kts
05-Nov-23 14:27 33.953678 -118.386266 263 400ft 138kts
05-Nov-23 14:28 33.950229 -118.420358 262 134ft 40kts
05-Nov-23 14:29 33.946329 -118.427303 88 134ft 17kts
05-Nov-23 14:30 33.947316 -118.417582 82 134ft 38kts
05-Nov-23 14:31 33.948047 -118.405877 128 134ft 24kts
05-Nov-23 14:32 33.947754 -118.403237 121 134ft 22kts
05-Nov-23 14:33 33.947754 -118.403237 121 134ft 22kts
05-Nov-23 14:34 33.947754 -118.403237 121 134ft 22kts
05-Nov-23 14:35 33.947754 -118.403237 121 134ft 22kts
05-Nov-23 14:36 33.947754 -118.403237 121 134ft 22kts
05-Nov-23 14:37 33.947754 -118.403237 121 134ft 22kts
05-Nov-23 14:38 33.947754 -118.403237 121 134ft 22kts
05-Nov-23 14:39 33.947754 -118.403237 121 134ft 22kts
05-Nov-23 14:40 33.947754 -118.403237 121 134ft 22kts
05-Nov-23 14:41 33.947754 -118.403237 121 134ft 22kts
05-Nov-23 14:42 33.947754 -118.403237 121 134ft 22kts

Navigation Log

Ident Type
Flight plan parsing failed, navigation log unavailable